sensor_id;sensor_type;location;lat;lon;timestamp;P1;durP1;ratioP1;P2;durP2;ratioP2
19482;SDS011;9882;51.166;6.992;2023-04-24T00:00:29;1.60;;;1.50;;
19482;SDS011;9882;51.166;6.992;2023-04-24T00:02:58;1.70;;;1.60;;
19482;SDS011;9882;51.166;6.992;2023-04-24T00:05:29;3.45;;;2.10;;
19482;SDS011;9882;51.166;6.992;2023-04-24T00:07:58;1.60;;;1.50;;
19482;SDS011;9882;51.166;6.992;2023-04-24T00:10:27;3.50;;;1.80;;
19482;SDS011;9882;51.166;6.992;2023-04-24T00:12:56;7.40;;;1.90;;
19482;SDS011;9882;51.166;6.992;2023-04-24T00:15:24;2.50;;;2.00;;
19482;SDS011;9882;51.166;6.992;2023-04-24T00:17:53;2.13;;;1.90;;
19482;SDS011;9882;51.166;6.992;2023-04-24T00:20:22;2.70;;;1.83;;
19482;SDS011;9882;51.166;6.992;2023-04-24T00:22:53;1.85;;;1.75;;
19482;SDS011;9882;51.166;6.992;2023-04-24T00:25:22;2.83;;;1.85;;
19482;SDS011;9882;51.166;6.992;2023-04-24T00:27:51;3.85;;;1.88;;
19482;SDS011;9882;51.166;6.992;2023-04-24T00:30:20;2.88;;;1.90;;
19482;SDS011;9882;51.166;6.992;2023-04-24T00:32:49;1.80;;;1.70;;
19482;SDS011;9882;51.166;6.992;2023-04-24T00:35:18;2.20;;;2.00;;
19482;SDS011;9882;51.166;6.992;2023-04-24T00:37:47;2.42;;;1.90;;
19482;SDS011;9882;51.166;6.992;2023-04-24T00:40:18;7.28;;;2.20;;
19482;SDS011;9882;51.166;6.992;2023-04-24T00:42:47;7.90;;;2.58;;
19482;SDS011;9882;51.166;6.992;2023-04-24T00:45:18;3.30;;;2.10;;
19482;SDS011;9882;51.166;6.992;2023-04-24T00:47:48;4.18;;;2.38;;
19482;SDS011;9882;51.166;6.992;2023-04-24T00:50:18;2.97;;;2.00;;
19482;SDS011;9882;51.166;6.992;2023-04-24T00:52:50;3.50;;;2.15;;
19482;SDS011;9882;51.166;6.992;2023-04-24T00:55:21;2.75;;;2.08;;
19482;SDS011;9882;51.166;6.992;2023-04-24T00:57:50;5.78;;;2.20;;
19482;SDS011;9882;51.166;6.992;2023-04-24T01:00:20;2.85;;;1.90;;
19482;SDS011;9882;51.166;6.992;2023-04-24T01:02:49;4.57;;;2.30;;
19482;SDS011;9882;51.166;6.992;2023-04-24T01:05:18;2.95;;;2.00;;
19482;SDS011;9882;51.166;6.992;2023-04-24T01:07:47;5.60;;;2.42;;
19482;SDS011;9882;51.166;6.992;2023-04-24T01:10:17;5.15;;;2.03;;
19482;SDS011;9882;51.166;6.992;2023-04-24T01:12:48;5.32;;;2.53;;
19482;SDS011;9882;51.166;6.992;2023-04-24T01:15:18;5.30;;;2.20;;
19482;SDS011;9882;51.166;6.992;2023-04-24T01:17:48;3.30;;;1.90;;
19482;SDS011;9882;51.166;6.992;2023-04-24T01:20:17;2.75;;;2.10;;
19482;SDS011;9882;51.166;6.992;2023-04-24T01:22:49;2.20;;;1.98;;
19482;SDS011;9882;51.166;6.992;2023-04-24T01:25:18;3.30;;;2.22;;
19482;SDS011;9882;51.166;6.992;2023-04-24T01:27:47;5.95;;;2.53;;
19482;SDS011;9882;51.166;6.992;2023-04-24T01:30:17;4.32;;;2.20;;
19482;SDS011;9882;51.166;6.992;2023-04-24T01:32:46;4.45;;;2.50;;
19482;SDS011;9882;51.166;6.992;2023-04-24T01:35:16;5.18;;;2.75;;
19482;SDS011;9882;51.166;6.992;2023-04-24T01:37:44;4.53;;;2.78;;
19482;SDS011;9882;51.166;6.992;2023-04-24T01:40:15;6.88;;;2.90;;
19482;SDS011;9882;51.166;6.992;2023-04-24T01:42:44;8.75;;;3.13;;
19482;SDS011;9882;51.166;6.992;2023-04-24T01:45:14;6.20;;;3.05;;
19482;SDS011;9882;51.166;6.992;2023-04-24T01:47:43;6.50;;;3.38;;
19482;SDS011;9882;51.166;6.992;2023-04-24T01:50:13;8.68;;;3.60;;
19482;SDS011;9882;51.166;6.992;2023-04-24T01:52:42;7.22;;;3.55;;
19482;SDS011;9882;51.166;6.992;2023-04-24T01:55:11;9.15;;;4.03;;
19482;SDS011;9882;51.166;6.992;2023-04-24T01:57:41;7.90;;;3.10;;
19482;SDS011;9882;51.166;6.992;2023-04-24T02:00:11;10.50;;;4.13;;
19482;SDS011;9882;51.166;6.992;2023-04-24T02:02:40;8.55;;;3.38;;
19482;SDS011;9882;51.166;6.992;2023-04-24T02:05:10;9.73;;;4.35;;
19482;SDS011;9882;51.166;6.992;2023-04-24T02:07:42;9.43;;;3.97;;
19482;SDS011;9882;51.166;6.992;2023-04-24T02:10:11;9.02;;;4.07;;
19482;SDS011;9882;51.166;6.992;2023-04-24T02:12:44;12.55;;;4.55;;
19482;SDS011;9882;51.166;6.992;2023-04-24T02:15:14;15.35;;;5.40;;
19482;SDS011;9882;51.166;6.992;2023-04-24T02:17:44;9.75;;;4.60;;
19482;SDS011;9882;51.166;6.992;2023-04-24T02:20:13;14.80;;;5.57;;
19482;SDS011;9882;51.166;6.992;2023-04-24T02:22:42;13.73;;;5.18;;
19482;SDS011;9882;51.166;6.992;2023-04-24T02:25:11;14.98;;;5.40;;
19482;SDS011;9882;51.166;6.992;2023-04-24T02:27:40;13.43;;;5.40;;
19482;SDS011;9882;51.166;6.992;2023-04-24T02:30:11;13.57;;;5.25;;
19482;SDS011;9882;51.166;6.992;2023-04-24T02:32:40;10.48;;;4.85;;
19482;SDS011;9882;51.166;6.992;2023-04-24T02:35:12;12.27;;;5.22;;
19482;SDS011;9882;51.166;6.992;2023-04-24T02:37:45;15.45;;;5.30;;
19482;SDS011;9882;51.166;6.992;2023-04-24T02:40:17;11.75;;;5.18;;
19482;SDS011;9882;51.166;6.992;2023-04-24T02:42:46;14.55;;;5.80;;
19482;SDS011;9882;51.166;6.992;2023-04-24T02:45:18;14.48;;;5.50;;
19482;SDS011;9882;51.166;6.992;2023-04-24T02:47:47;18.00;;;5.82;;
19482;SDS011;9882;51.166;6.992;2023-04-24T02:50:16;17.73;;;6.57;;
19482;SDS011;9882;51.166;6.992;2023-04-24T02:52:45;20.60;;;6.20;;
19482;SDS011;9882;51.166;6.992;2023-04-24T02:55:14;16.65;;;6.35;;
19482;SDS011;9882;51.166;6.992;2023-04-24T02:57:43;20.33;;;6.55;;
19482;SDS011;9882;51.166;6.992;2023-04-24T03:00:13;17.85;;;6.93;;
19482;SDS011;9882;51.166;6.992;2023-04-24T03:02:44;17.90;;;6.95;;
19482;SDS011;9882;51.166;6.992;2023-04-24T03:05:13;20.08;;;8.02;;
19482;SDS011;9882;51.166;6.992;2023-04-24T03:07:42;19.05;;;6.88;;
19482;SDS011;9882;51.166;6.992;2023-04-24T03:10:11;16.90;;;6.68;;
19482;SDS011;9882;51.166;6.992;2023-04-24T03:12:41;22.60;;;7.15;;
19482;SDS011;9882;51.166;6.992;2023-04-24T03:15:10;21.08;;;6.80;;
19482;SDS011;9882;51.166;6.992;2023-04-24T03:17:39;18.25;;;6.90;;
19482;SDS011;9882;51.166;6.992;2023-04-24T03:20:10;17.23;;;7.05;;
19482;SDS011;9882;51.166;6.992;2023-04-24T03:22:39;16.98;;;6.18;;
19482;SDS011;9882;51.166;6.992;2023-04-24T03:25:08;18.60;;;6.32;;
19482;SDS011;9882;51.166;6.992;2023-04-24T03:27:38;20.73;;;6.15;;
19482;SDS011;9882;51.166;6.992;2023-04-24T03:30:17;15.07;;;6.20;;
19482;SDS011;9882;51.166;6.992;2023-04-24T03:32:52;15.27;;;6.20;;
19482;SDS011;9882;51.166;6.992;2023-04-24T03:35:29;17.52;;;5.93;;
19482;SDS011;9882;51.166;6.992;2023-04-24T03:38:01;18.05;;;5.97;;
19482;SDS011;9882;51.166;6.992;2023-04-24T03:40:49;16.98;;;5.93;;
19482;SDS011;9882;51.166;6.992;2023-04-24T03:43:41;15.35;;;5.82;;
19482;SDS011;9882;51.166;6.992;2023-04-24T03:46:10;19.13;;;6.72;;
19482;SDS011;9882;51.166;6.992;2023-04-24T03:48:44;21.63;;;6.63;;
19482;SDS011;9882;51.166;6.992;2023-04-24T03:51:18;16.80;;;6.22;;
19482;SDS011;9882;51.166;6.992;2023-04-24T03:53:49;20.75;;;6.13;;
19482;SDS011;9882;51.166;6.992;2023-04-24T03:56:21;17.73;;;6.93;;
19482;SDS011;9882;51.166;6.992;2023-04-24T03:58:50;20.02;;;6.97;;
19482;SDS011;9882;51.166;6.992;2023-04-24T04:01:19;21.92;;;6.97;;
19482;SDS011;9882;51.166;6.992;2023-04-24T04:03:57;20.52;;;6.78;;
19482;SDS011;9882;51.166;6.992;2023-04-24T04:06:30;21.65;;;7.50;;
19482;SDS011;9882;51.166;6.992;2023-04-24T04:09:00;19.98;;;6.28;;
19482;SDS011;9882;51.166;6.992;2023-04-24T04:11:30;24.27;;;7.50;;
19482;SDS011;9882;51.166;6.992;2023-04-24T04:13:59;18.85;;;7.35;;
19482;SDS011;9882;51.166;6.992;2023-04-24T04:16:29;16.73;;;6.22;;
19482;SDS011;9882;51.166;6.992;2023-04-24T04:19:02;23.27;;;7.50;;
19482;SDS011;9882;51.166;6.992;2023-04-24T04:21:33;22.27;;;7.15;;
19482;SDS011;9882;51.166;6.992;2023-04-24T04:24:17;19.42;;;7.28;;
19482;SDS011;9882;51.166;6.992;2023-04-24T04:26:46;23.80;;;8.27;;
19482;SDS011;9882;51.166;6.992;2023-04-24T04:29:24;18.50;;;7.25;;
19482;SDS011;9882;51.166;6.992;2023-04-24T04:31:53;18.80;;;7.10;;
19482;SDS011;9882;51.166;6.992;2023-04-24T04:34:22;19.75;;;6.85;;
19482;SDS011;9882;51.166;6.992;2023-04-24T04:36:53;26.73;;;7.20;;
19482;SDS011;9882;51.166;6.992;2023-04-24T04:39:39;15.75;;;6.43;;
19482;SDS011;9882;51.166;6.992;2023-04-24T04:42:12;16.88;;;6.60;;
19482;SDS011;9882;51.166;6.992;2023-04-24T04:44:43;18.08;;;6.97;;
19482;SDS011;9882;51.166;6.992;2023-04-24T04:47:17;21.40;;;6.72;;
19482;SDS011;9882;51.166;6.992;2023-04-24T04:49:50;15.90;;;6.00;;
19482;SDS011;9882;51.166;6.992;2023-04-24T04:52:25;19.35;;;7.32;;
19482;SDS011;9882;51.166;6.992;2023-04-24T04:55:07;17.95;;;6.80;;
19482;SDS011;9882;51.166;6.992;2023-04-24T04:57:55;18.73;;;6.20;;
19482;SDS011;9882;51.166;6.992;2023-04-24T05:00:24;19.50;;;6.57;;
19482;SDS011;9882;51.166;6.992;2023-04-24T05:02:56;17.17;;;6.78;;
19482;SDS011;9882;51.166;6.992;2023-04-24T05:05:29;15.95;;;6.35;;
19482;SDS011;9882;51.166;6.992;2023-04-24T05:08:02;16.83;;;6.68;;
19482;SDS011;9882;51.166;6.992;2023-04-24T05:10:33;21.88;;;7.18;;
19482;SDS011;9882;51.166;6.992;2023-04-24T05:13:04;16.88;;;6.93;;
19482;SDS011;9882;51.166;6.992;2023-04-24T05:15:33;22.20;;;6.80;;
19482;SDS011;9882;51.166;6.992;2023-04-24T05:18:03;21.90;;;6.97;;
19482;SDS011;9882;51.166;6.992;2023-04-24T05:20:32;18.48;;;5.97;;
19482;SDS011;9882;51.166;6.992;2023-04-24T05:23:03;16.30;;;6.25;;
19482;SDS011;9882;51.166;6.992;2023-04-24T05:25:32;21.92;;;6.65;;
19482;SDS011;9882;51.166;6.992;2023-04-24T05:28:07;22.30;;;6.55;;
19482;SDS011;9882;51.166;6.992;2023-04-24T05:30:37;19.88;;;6.65;;
19482;SDS011;9882;51.166;6.992;2023-04-24T05:33:06;17.13;;;6.28;;
19482;SDS011;9882;51.166;6.992;2023-04-24T05:35:37;15.60;;;6.13;;
19482;SDS011;9882;51.166;6.992;2023-04-24T05:38:07;18.90;;;5.80;;
19482;SDS011;9882;51.166;6.992;2023-04-24T05:40:36;15.38;;;6.65;;
19482;SDS011;9882;51.166;6.992;2023-04-24T05:43:05;15.65;;;6.22;;
19482;SDS011;9882;51.166;6.992;2023-04-24T05:45:34;14.45;;;5.47;;
19482;SDS011;9882;51.166;6.992;2023-04-24T05:48:04;17.17;;;6.20;;
19482;SDS011;9882;51.166;6.992;2023-04-24T05:50:33;17.15;;;6.00;;
19482;SDS011;9882;51.166;6.992;2023-04-24T05:53:03;18.67;;;6.18;;
19482;SDS011;9882;51.166;6.992;2023-04-24T05:55:40;15.90;;;6.43;;
19482;SDS011;9882;51.166;6.992;2023-04-24T05:58:10;19.27;;;6.70;;
19482;SDS011;9882;51.166;6.992;2023-04-24T06:00:41;18.20;;;6.65;;
19482;SDS011;9882;51.166;6.992;2023-04-24T06:03:11;16.55;;;6.35;;
19482;SDS011;9882;51.166;6.992;2023-04-24T06:05:44;16.45;;;6.20;;
19482;SDS011;9882;51.166;6.992;2023-04-24T06:08:13;14.40;;;6.70;;
19482;SDS011;9882;51.166;6.992;2023-04-24T06:10:45;17.50;;;6.82;;
19482;SDS011;9882;51.166;6.992;2023-04-24T06:13:15;22.02;;;7.25;;
19482;SDS011;9882;51.166;6.992;2023-04-24T06:16:02;18.55;;;6.50;;
19482;SDS011;9882;51.166;6.992;2023-04-24T06:18:35;17.20;;;6.72;;
19482;SDS011;9882;51.166;6.992;2023-04-24T06:21:04;18.10;;;7.13;;
19482;SDS011;9882;51.166;6.992;2023-04-24T06:23:33;14.55;;;6.35;;
19482;SDS011;9882;51.166;6.992;2023-04-24T06:26:03;13.57;;;6.18;;
19482;SDS011;9882;51.166;6.992;2023-04-24T06:28:33;13.88;;;5.68;;
19482;SDS011;9882;51.166;6.992;2023-04-24T06:31:01;13.27;;;5.78;;
19482;SDS011;9882;51.166;6.992;2023-04-24T06:33:30;17.50;;;6.18;;
19482;SDS011;9882;51.166;6.992;2023-04-24T06:36:01;16.23;;;5.85;;
19482;SDS011;9882;51.166;6.992;2023-04-24T06:38:31;15.82;;;5.57;;
19482;SDS011;9882;51.166;6.992;2023-04-24T06:41:00;15.55;;;5.20;;
19482;SDS011;9882;51.166;6.992;2023-04-24T06:46:28;12.32;;;4.80;;
19482;SDS011;9882;51.166;6.992;2023-04-24T06:52:37;13.20;;;4.45;;
19482;SDS011;9882;51.166;6.992;2023-04-24T06:55:06;16.10;;;5.00;;
19482;SDS011;9882;51.166;6.992;2023-04-24T06:57:40;10.55;;;4.43;;
19482;SDS011;9882;51.166;6.992;2023-04-24T07:00:11;10.25;;;4.93;;
19482;SDS011;9882;51.166;6.992;2023-04-24T07:02:42;16.88;;;4.82;;
19482;SDS011;9882;51.166;6.992;2023-04-24T07:05:11;12.05;;;4.63;;
19482;SDS011;9882;51.166;6.992;2023-04-24T07:07:42;9.20;;;4.65;;
19482;SDS011;9882;51.166;6.992;2023-04-24T07:10:12;10.40;;;4.60;;
19482;SDS011;9882;51.166;6.992;2023-04-24T07:12:41;14.20;;;4.88;;
19482;SDS011;9882;51.166;6.992;2023-04-24T07:15:14;10.30;;;4.18;;
19482;SDS011;9882;51.166;6.992;2023-04-24T07:18:20;7.07;;;3.83;;
19482;SDS011;9882;51.166;6.992;2023-04-24T07:24:08;10.35;;;4.10;;
19482;SDS011;9882;51.166;6.992;2023-04-24T07:26:38;9.80;;;3.80;;
19482;SDS011;9882;51.166;6.992;2023-04-24T07:29:07;9.63;;;3.90;;
19482;SDS011;9882;51.166;6.992;2023-04-24T07:31:38;5.45;;;3.17;;
19482;SDS011;9882;51.166;6.992;2023-04-24T07:34:12;8.40;;;3.00;;
19482;SDS011;9882;51.166;6.992;2023-04-24T07:36:41;6.43;;;3.20;;
19482;SDS011;9882;51.166;6.992;2023-04-24T07:39:10;4.72;;;2.85;;
19482;SDS011;9882;51.166;6.992;2023-04-24T07:41:39;4.03;;;2.63;;
19482;SDS011;9882;51.166;6.992;2023-04-24T07:44:08;6.57;;;2.50;;
19482;SDS011;9882;51.166;6.992;2023-04-24T07:46:38;4.25;;;2.50;;
19482;SDS011;9882;51.166;6.992;2023-04-24T07:49:08;7.35;;;2.72;;
19482;SDS011;9882;51.166;6.992;2023-04-24T07:51:39;5.68;;;2.45;;
19482;SDS011;9882;51.166;6.992;2023-04-24T07:54:08;4.15;;;2.80;;
19482;SDS011;9882;51.166;6.992;2023-04-24T07:56:37;7.55;;;2.05;;
19482;SDS011;9882;51.166;6.992;2023-04-24T07:59:07;3.67;;;2.30;;
19482;SDS011;9882;51.166;6.992;2023-04-24T08:01:36;1.92;;;1.80;;
19482;SDS011;9882;51.166;6.992;2023-04-24T08:04:07;2.35;;;1.60;;
19482;SDS011;9882;51.166;6.992;2023-04-24T08:06:36;3.08;;;2.05;;
19482;SDS011;9882;51.166;6.992;2023-04-24T08:09:05;3.33;;;1.98;;
19482;SDS011;9882;51.166;6.992;2023-04-24T08:11:34;7.75;;;1.55;;
19482;SDS011;9882;51.166;6.992;2023-04-24T08:14:03;2.17;;;1.65;;
19482;SDS011;9882;51.166;6.992;2023-04-24T08:16:32;1.60;;;1.50;;
19482;SDS011;9882;51.166;6.992;2023-04-24T08:19:04;1.65;;;1.45;;
19482;SDS011;9882;51.166;6.992;2023-04-24T08:21:33;1.95;;;1.40;;
19482;SDS011;9882;51.166;6.992;2023-04-24T08:24:02;1.98;;;1.77;;
19482;SDS011;9882;51.166;6.992;2023-04-24T08:26:34;2.40;;;1.77;;
19482;SDS011;9882;51.166;6.992;2023-04-24T08:29:04;2.45;;;2.00;;
19482;SDS011;9882;51.166;6.992;2023-04-24T08:31:38;2.97;;;2.08;;
19482;SDS011;9882;51.166;6.992;2023-04-24T08:34:11;4.43;;;1.88;;
19482;SDS011;9882;51.166;6.992;2023-04-24T08:36:40;2.78;;;2.15;;
19482;SDS011;9882;51.166;6.992;2023-04-24T08:39:12;4.43;;;2.60;;
19482;SDS011;9882;51.166;6.992;2023-04-24T08:41:42;6.80;;;2.50;;
19482;SDS011;9882;51.166;6.992;2023-04-24T08:44:12;5.35;;;2.88;;
19482;SDS011;9882;51.166;6.992;2023-04-24T08:46:43;7.75;;;3.15;;
19482;SDS011;9882;51.166;6.992;2023-04-24T08:49:15;8.98;;;3.95;;
19482;SDS011;9882;51.166;6.992;2023-04-24T08:51:45;10.07;;;3.88;;
19482;SDS011;9882;51.166;6.992;2023-04-24T08:54:15;9.65;;;3.67;;
19482;SDS011;9882;51.166;6.992;2023-04-24T08:56:45;7.53;;;3.70;;
19482;SDS011;9882;51.166;6.992;2023-04-24T08:59:16;9.70;;;3.78;;
19482;SDS011;9882;51.166;6.992;2023-04-24T09:01:46;7.95;;;3.83;;
19482;SDS011;9882;51.166;6.992;2023-04-24T09:04:21;11.75;;;4.13;;
19482;SDS011;9882;51.166;6.992;2023-04-24T09:06:54;11.30;;;3.92;;
19482;SDS011;9882;51.166;6.992;2023-04-24T09:09:25;11.45;;;4.28;;
19482;SDS011;9882;51.166;6.992;2023-04-24T09:11:58;7.97;;;3.65;;
19482;SDS011;9882;51.166;6.992;2023-04-24T09:14:28;7.03;;;3.33;;
19482;SDS011;9882;51.166;6.992;2023-04-24T09:16:58;9.15;;;3.60;;
19482;SDS011;9882;51.166;6.992;2023-04-24T09:19:29;11.02;;;3.90;;
19482;SDS011;9882;51.166;6.992;2023-04-24T09:21:58;3.70;;;2.83;;
19482;SDS011;9882;51.166;6.992;2023-04-24T09:24:27;6.95;;;3.38;;
19482;SDS011;9882;51.166;6.992;2023-04-24T09:26:56;9.30;;;3.55;;
19482;SDS011;9882;51.166;6.992;2023-04-24T09:29:28;9.43;;;3.60;;
19482;SDS011;9882;51.166;6.992;2023-04-24T09:32:08;8.90;;;3.30;;
19482;SDS011;9882;51.166;6.992;2023-04-24T09:35:04;8.55;;;3.65;;
19482;SDS011;9882;51.166;6.992;2023-04-24T09:37:35;8.57;;;3.83;;
19482;SDS011;9882;51.166;6.992;2023-04-24T09:40:12;11.05;;;3.78;;
19482;SDS011;9882;51.166;6.992;2023-04-24T09:42:43;10.65;;;3.83;;
19482;SDS011;9882;51.166;6.992;2023-04-24T09:45:13;12.02;;;4.90;;
19482;SDS011;9882;51.166;6.992;2023-04-24T09:47:43;12.82;;;4.90;;
19482;SDS011;9882;51.166;6.992;2023-04-24T09:50:15;14.40;;;4.72;;
19482;SDS011;9882;51.166;6.992;2023-04-24T09:52:47;10.07;;;4.10;;
19482;SDS011;9882;51.166;6.992;2023-04-24T09:55:28;9.55;;;3.92;;
19482;SDS011;9882;51.166;6.992;2023-04-24T09:58:00;11.40;;;4.25;;
19482;SDS011;9882;51.166;6.992;2023-04-24T10:00:34;11.20;;;4.60;;
19482;SDS011;9882;51.166;6.992;2023-04-24T10:03:09;12.68;;;4.70;;
19482;SDS011;9882;51.166;6.992;2023-04-24T10:05:52;15.63;;;4.65;;
19482;SDS011;9882;51.166;6.992;2023-04-24T10:08:33;17.08;;;6.03;;
19482;SDS011;9882;51.166;6.992;2023-04-24T10:11:02;17.65;;;5.55;;
19482;SDS011;9882;51.166;6.992;2023-04-24T10:13:31;12.13;;;4.75;;
19482;SDS011;9882;51.166;6.992;2023-04-24T10:16:01;13.27;;;4.65;;
19482;SDS011;9882;51.166;6.992;2023-04-24T10:18:32;15.73;;;5.97;;
19482;SDS011;9882;51.166;6.992;2023-04-24T10:21:07;16.83;;;5.57;;
19482;SDS011;9882;51.166;6.992;2023-04-24T10:23:37;18.20;;;6.78;;
19482;SDS011;9882;51.166;6.992;2023-04-24T10:26:08;17.88;;;6.95;;
19482;SDS011;9882;51.166;6.992;2023-04-24T10:28:39;20.60;;;6.47;;
19482;SDS011;9882;51.166;6.992;2023-04-24T10:31:10;20.15;;;6.78;;
19482;SDS011;9882;51.166;6.992;2023-04-24T10:33:41;14.23;;;5.47;;
19482;SDS011;9882;51.166;6.992;2023-04-24T10:36:13;21.00;;;7.25;;
19482;SDS011;9882;51.166;6.992;2023-04-24T10:38:44;14.98;;;5.80;;
19482;SDS011;9882;51.166;6.992;2023-04-24T10:41:17;20.85;;;7.18;;
19482;SDS011;9882;51.166;6.992;2023-04-24T10:44:03;22.77;;;8.13;;
19482;SDS011;9882;51.166;6.992;2023-04-24T10:46:34;16.08;;;6.47;;
19482;SDS011;9882;51.166;6.992;2023-04-24T10:49:27;24.17;;;7.40;;
19482;SDS011;9882;51.166;6.992;2023-04-24T10:52:01;19.73;;;6.93;;
19482;SDS011;9882;51.166;6.992;2023-04-24T10:54:34;15.18;;;6.40;;
19482;SDS011;9882;51.166;6.992;2023-04-24T11:00:19;23.02;;;6.95;;
19482;SDS011;9882;51.166;6.992;2023-04-24T11:02:50;20.13;;;6.60;;
19482;SDS011;9882;51.166;6.992;2023-04-24T11:08:23;14.05;;;5.45;;
19482;SDS011;9882;51.166;6.992;2023-04-24T11:10:55;14.10;;;5.10;;
19482;SDS011;9882;51.166;6.992;2023-04-24T11:13:25;18.23;;;5.90;;
19482;SDS011;9882;51.166;6.992;2023-04-24T11:16:20;15.88;;;6.50;;
19482;SDS011;9882;51.166;6.992;2023-04-24T11:19:02;18.83;;;5.65;;
19482;SDS011;9882;51.166;6.992;2023-04-24T11:21:40;20.75;;;6.00;;
19482;SDS011;9882;51.166;6.992;2023-04-24T11:24:31;20.25;;;6.57;;
19482;SDS011;9882;51.166;6.992;2023-04-24T11:27:05;19.40;;;6.07;;
19482;SDS011;9882;51.166;6.992;2023-04-24T11:29:39;27.88;;;6.35;;
19482;SDS011;9882;51.166;6.992;2023-04-24T11:32:22;20.50;;;6.32;;
19482;SDS011;9882;51.166;6.992;2023-04-24T11:34:53;26.10;;;6.38;;
19482;SDS011;9882;51.166;6.992;2023-04-24T11:37:33;18.27;;;6.32;;
19482;SDS011;9882;51.166;6.992;2023-04-24T11:40:10;13.82;;;5.50;;
19482;SDS011;9882;51.166;6.992;2023-04-24T11:42:40;17.15;;;6.28;;
19482;SDS011;9882;51.166;6.992;2023-04-24T11:45:15;9.77;;;4.68;;
19482;SDS011;9882;51.166;6.992;2023-04-24T11:47:50;16.67;;;5.22;;
19482;SDS011;9882;51.166;6.992;2023-04-24T11:50:22;23.00;;;5.88;;
19482;SDS011;9882;51.166;6.992;2023-04-24T11:52:56;20.85;;;5.07;;
19482;SDS011;9882;51.166;6.992;2023-04-24T11:55:32;19.63;;;4.97;;
19482;SDS011;9882;51.166;6.992;2023-04-24T11:58:00;17.52;;;5.47;;
19482;SDS011;9882;51.166;6.992;2023-04-24T12:00:29;15.45;;;4.68;;
19482;SDS011;9882;51.166;6.992;2023-04-24T12:03:04;17.83;;;5.50;;
19482;SDS011;9882;51.166;6.992;2023-04-24T12:23:16;18.42;;;5.05;;
19482;SDS011;9882;51.166;6.992;2023-04-24T12:33:53;20.80;;;5.13;;
19482;SDS011;9882;51.166;6.992;2023-04-24T12:54:07;9.50;;;3.55;;
19482;SDS011;9882;51.166;6.992;2023-04-24T12:56:35;10.18;;;3.50;;
19482;SDS011;9882;51.166;6.992;2023-04-24T12:59:06;9.77;;;3.50;;
19482;SDS011;9882;51.166;6.992;2023-04-24T13:01:37;7.28;;;3.10;;
19482;SDS011;9882;51.166;6.992;2023-04-24T13:04:09;10.63;;;3.47;;
19482;SDS011;9882;51.166;6.992;2023-04-24T13:06:43;8.88;;;3.28;;
19482;SDS011;9882;51.166;6.992;2023-04-24T13:09:17;7.60;;;3.13;;
19482;SDS011;9882;51.166;6.992;2023-04-24T13:11:49;10.15;;;3.13;;
19482;SDS011;9882;51.166;6.992;2023-04-24T13:14:20;9.02;;;2.90;;
19482;SDS011;9882;51.166;6.992;2023-04-24T13:24:34;8.27;;;3.42;;
19482;SDS011;9882;51.166;6.992;2023-04-24T13:45:00;6.32;;;3.13;;
19482;SDS011;9882;51.166;6.992;2023-04-24T14:47:02;6.72;;;2.97;;
19482;SDS011;9882;51.166;6.992;2023-04-24T14:49:31;6.07;;;2.95;;
19482;SDS011;9882;51.166;6.992;2023-04-24T14:52:00;6.05;;;2.75;;
19482;SDS011;9882;51.166;6.992;2023-04-24T14:54:29;6.45;;;3.08;;
19482;SDS011;9882;51.166;6.992;2023-04-24T14:56:58;18.80;;;3.40;;
19482;SDS011;9882;51.166;6.992;2023-04-24T14:59:28;8.35;;;3.00;;
19482;SDS011;9882;51.166;6.992;2023-04-24T15:01:58;9.40;;;3.03;;
19482;SDS011;9882;51.166;6.992;2023-04-24T15:04:36;10.90;;;2.85;;
19482;SDS011;9882;51.166;6.992;2023-04-24T15:07:04;6.80;;;2.70;;
19482;SDS011;9882;51.166;6.992;2023-04-24T15:09:33;10.38;;;2.78;;
19482;SDS011;9882;51.166;6.992;2023-04-24T15:12:01;4.25;;;2.60;;
19482;SDS011;9882;51.166;6.992;2023-04-24T15:14:30;4.50;;;2.40;;
19482;SDS011;9882;51.166;6.992;2023-04-24T15:16:58;7.82;;;2.90;;
19482;SDS011;9882;51.166;6.992;2023-04-24T15:19:27;7.05;;;2.80;;
19482;SDS011;9882;51.166;6.992;2023-04-24T15:21:56;14.18;;;2.90;;
19482;SDS011;9882;51.166;6.992;2023-04-24T15:24:25;7.38;;;2.67;;
19482;SDS011;9882;51.166;6.992;2023-04-24T15:26:54;5.30;;;2.50;;
19482;SDS011;9882;51.166;6.992;2023-04-24T15:29:23;2.78;;;2.22;;
19482;SDS011;9882;51.166;6.992;2023-04-24T15:31:53;7.20;;;2.85;;
19482;SDS011;9882;51.166;6.992;2023-04-24T15:34:22;4.35;;;2.67;;
19482;SDS011;9882;51.166;6.992;2023-04-24T15:36:50;6.60;;;2.30;;
19482;SDS011;9882;51.166;6.992;2023-04-24T15:39:22;7.53;;;2.42;;
19482;SDS011;9882;51.166;6.992;2023-04-24T15:41:51;5.45;;;2.53;;
19482;SDS011;9882;51.166;6.992;2023-04-24T15:44:20;7.38;;;3.15;;
19482;SDS011;9882;51.166;6.992;2023-04-24T15:46:49;6.57;;;2.55;;
19482;SDS011;9882;51.166;6.992;2023-04-24T15:49:18;8.02;;;3.00;;
19482;SDS011;9882;51.166;6.992;2023-04-24T15:51:46;9.30;;;3.13;;
19482;SDS011;9882;51.166;6.992;2023-04-24T15:54:15;4.60;;;2.35;;
19482;SDS011;9882;51.166;6.992;2023-04-24T15:56:45;3.13;;;2.53;;
19482;SDS011;9882;51.166;6.992;2023-04-24T15:59:14;7.00;;;2.50;;
19482;SDS011;9882;51.166;6.992;2023-04-24T16:01:42;4.38;;;2.33;;
19482;SDS011;9882;51.166;6.992;2023-04-24T16:04:11;7.10;;;2.90;;
19482;SDS011;9882;51.166;6.992;2023-04-24T16:06:40;6.60;;;2.92;;
19482;SDS011;9882;51.166;6.992;2023-04-24T16:09:08;6.45;;;3.15;;
19482;SDS011;9882;51.166;6.992;2023-04-24T16:11:37;6.18;;;2.95;;
19482;SDS011;9882;51.166;6.992;2023-04-24T16:14:06;5.15;;;2.78;;
19482;SDS011;9882;51.166;6.992;2023-04-24T16:16:36;7.15;;;3.03;;
19482;SDS011;9882;51.166;6.992;2023-04-24T16:19:04;8.52;;;3.03;;
19482;SDS011;9882;51.166;6.992;2023-04-24T16:21:34;7.35;;;3.33;;
19482;SDS011;9882;51.166;6.992;2023-04-24T16:24:02;5.35;;;2.72;;
19482;SDS011;9882;51.166;6.992;2023-04-24T16:26:31;6.40;;;2.95;;
19482;SDS011;9882;51.166;6.992;2023-04-24T16:28:59;17.45;;;4.55;;
19482;SDS011;9882;51.166;6.992;2023-04-24T16:31:29;8.45;;;2.90;;
19482;SDS011;9882;51.166;6.992;2023-04-24T16:33:57;3.97;;;2.42;;
19482;SDS011;9882;51.166;6.992;2023-04-24T16:36:26;9.25;;;3.20;;
19482;SDS011;9882;51.166;6.992;2023-04-24T16:38:54;6.38;;;3.15;;
19482;SDS011;9882;51.166;6.992;2023-04-24T16:41:23;8.02;;;3.33;;
19482;SDS011;9882;51.166;6.992;2023-04-24T16:43:51;5.93;;;2.50;;
19482;SDS011;9882;51.166;6.992;2023-04-24T16:46:20;6.97;;;2.63;;
19482;SDS011;9882;51.166;6.992;2023-04-24T16:48:50;5.50;;;3.15;;
19482;SDS011;9882;51.166;6.992;2023-04-24T16:51:18;9.63;;;3.10;;
19482;SDS011;9882;51.166;6.992;2023-04-24T16:53:47;7.07;;;3.03;;
19482;SDS011;9882;51.166;6.992;2023-04-24T16:56:15;4.70;;;2.45;;
19482;SDS011;9882;51.166;6.992;2023-04-24T16:58:44;6.10;;;2.78;;
19482;SDS011;9882;51.166;6.992;2023-04-24T17:01:12;5.40;;;2.70;;
19482;SDS011;9882;51.166;6.992;2023-04-24T17:03:41;5.63;;;2.70;;
19482;SDS011;9882;51.166;6.992;2023-04-24T17:06:10;3.40;;;2.08;;
19482;SDS011;9882;51.166;6.992;2023-04-24T17:08:39;6.05;;;2.50;;
19482;SDS011;9882;51.166;6.992;2023-04-24T17:11:08;4.20;;;2.60;;
19482;SDS011;9882;51.166;6.992;2023-04-24T17:13:36;8.95;;;2.85;;
19482;SDS011;9882;51.166;6.992;2023-04-24T17:16:07;8.98;;;2.63;;
19482;SDS011;9882;51.166;6.992;2023-04-24T17:18:36;7.60;;;3.35;;
19482;SDS011;9882;51.166;6.992;2023-04-24T17:21:05;6.90;;;2.85;;
19482;SDS011;9882;51.166;6.992;2023-04-24T17:23:35;6.28;;;2.50;;
19482;SDS011;9882;51.166;6.992;2023-04-24T17:26:04;8.93;;;2.35;;
19482;SDS011;9882;51.166;6.992;2023-04-24T17:28:32;7.90;;;2.78;;
19482;SDS011;9882;51.166;6.992;2023-04-24T17:31:01;13.15;;;2.60;;
19482;SDS011;9882;51.166;6.992;2023-04-24T17:33:29;4.65;;;2.50;;
19482;SDS011;9882;51.166;6.992;2023-04-24T17:35:58;8.43;;;3.10;;
19482;SDS011;9882;51.166;6.992;2023-04-24T17:38:28;2.95;;;2.10;;
19482;SDS011;9882;51.166;6.992;2023-04-24T17:40:58;11.45;;;2.97;;
19482;SDS011;9882;51.166;6.992;2023-04-24T17:43:27;4.30;;;2.65;;